Minerva Libra — SVAA7 — position and weather

sailwx.info

Track history (hours):
 
Tides and Currents Weather Stations Pressure Air Temp Water Temp Dewpoint Dewpoint Depression Visibility Wind Speed Wind Dir Waves Ship Positions

Minerva Libra

Last reported at 2017-Feb-22 18:19 UTC. Time now 2017-Feb-23 18:49 UTC.
Position N 55°48' E 016°54'.

Length 250 m; draft 8.5 m.

Type: Ship. MMSI: 240766000.

Date/timePositionNaut miles runAvg speedWind from/ knotsBaromVisibWave heightAir tempDewpointWater temp
2017-Feb-22 18:19N 55°48' E 016°54'810.3
2017-Feb-22 17:33N 55°47' E 016°41'1010.1
2017-Feb-22 16:33N 55°44' E 016°23'1010.1
2017-Feb-22 15:33N 55°42' E 016°06'1010.0
2017-Feb-22 14:33N 55°40' E 015°49'1010.0
2017-Feb-22 13:33N 55°37' E 015°32'10 9.8
2017-Feb-22 12:33N 55°33' E 015°16'1010.0
2017-Feb-22 11:33N 55°29' E 014°60'1010.4
2017-Feb-22 10:33N 55°25' E 014°43'1010.0
2017-Feb-22 09:33N 55°18' E 014°30'10 9.7
2017-Feb-22 08:33N 55°10' E 014°20'10 9.8
2017-Feb-22 07:33N 55°02' E 014°09'1010.3
2017-Feb-22 06:33N 54°59' E 013°52'1010.1
2017-Feb-22 05:33N 54°55' E 013°36'29 9.6
2017-Feb-22 02:33N 54°46' E 012°49'1010.0
2017-Feb-22 01:33N 54°41' E 012°34'1010.4
2017-Feb-22 00:33N 54°35' E 012°19'10 9.6
2017-Feb-21 23:33N 54°27' E 012°12'1210.9
2017-Feb-21 22:26N 54°25' E 011°51'1011.2
2017-Feb-21 21:33N 54°28' E 011°35'1211.8
2017-Feb-21 20:33N 54°33' E 011°17'1212.1
2017-Feb-21 19:33N 54°39' E 010°59'1110.7
2017-Feb-21 18:33N 54°49' E 010°51'1211.7
2017-Feb-21 17:33N 54°60' E 010°60'1212.0
2017-Feb-21 16:33N 55°12' E 011°05'6410.1
2017-Feb-21 10:12N 56°16' E 011°05'55 7.7
2017-Feb-21 03:04N 57°08' E 011°38'510.6
2017-Feb-21 02:33N 57°13' E 011°34'1010.5
2017-Feb-21 01:33N 57°23' E 011°28'1010.2
2017-Feb-21 00:33N 57°31' E 011°17'1110.8
2017-Feb-20 23:33N 57°39' E 011°03'6 6.5
2017-Feb-20 22:33N 57°42' E 010°52'3 3.1
2017-Feb-20 21:33N 57°40' E 010°47'2 2.3
2017-Feb-20 20:33N 57°38' E 010°46'1 1.2
2017-Feb-20 19:33N 57°39' E 010°46'3 3.2
2017-Feb-20 18:33N 57°36' E 010°44'1010.4
2017-Feb-20 17:33N 57°26' E 010°47'1 0.1
2017-Feb-20 03:10N 57°25' E 010°46'0 0.0
2017-Feb-19 11:33N 57°25' E 010°47'1 0.9
2017-Feb-19 10:33N 57°25' E 010°48'1 0.9
2017-Feb-19 09:33N 57°26' E 010°50'0 0.1
2017-Feb-19 08:24N 57°26' E 010°49'0 0.0
2017-Feb-19 07:33N 57°26' E 010°50'0 0.0
2017-Feb-19 06:30N 57°26' E 010°50'0 0.0
2017-Feb-19 05:33N 57°26' E 010°50'0 0.0
2017-Feb-19 04:33N 57°26' E 010°50'0 0.0
2017-Feb-19 03:33N 57°26' E 010°50'0 0.0
2017-Feb-19 02:33N 57°26' E 010°50'0 0.0
2017-Feb-19 01:24N 57°26' E 010°50'0 0.0
2017-Feb-19 00:15N 57°26' E 010°50'0 0.0
2017-Feb-18 23:18N 57°26' E 010°50'0 0.0
2017-Feb-18 22:30N 57°26' E 010°50'0 0.0
2017-Feb-18 21:33N 57°26' E 010°50'0 0.0
2017-Feb-18 20:33N 57°26' E 010°50'0 0.0
2017-Feb-18 19:30N 57°26' E 010°50'0 0.0
2017-Feb-18 18:30N 57°26' E 010°50'2 1.6
2017-Feb-18 17:33N 57°27' E 010°52'1211.7
2017-Feb-18 16:33N 57°30' E 011°13'1111.3
2017-Feb-18 15:33N 57°23' E 011°29'1312.6
2017-Feb-18 14:33N 57°11' E 011°37'1812.3
2017-Feb-18 13:06N 56°54' E 011°48'1711.2
2017-Feb-18 11:33N 56°37' E 011°45'7810.5
2017-Feb-18 04:06N 55°22' E 011°02'810.1
2017-Feb-18 03:17N 55°14' E 011°06'811.2
2017-Feb-18 02:33N 55°07' E 010°59'1110.8
2017-Feb-18 01:33N 54°56' E 010°54'1111.3
2017-Feb-18 00:33N 54°46' E 010°48'10 9.5
2017-Feb-17 23:33N 54°37' E 010°57'1211.6
2017-Feb-17 22:33N 54°34' E 011°16'1212.4
2017-Feb-17 21:33N 54°29' E 011°36'1511.9
2017-Feb-17 20:20N 54°27' E 012°01'7 8.4
2017-Feb-17 19:33N 54°28' E 012°12'9 9.4
2017-Feb-17 18:34N 54°36' E 012°17'10 9.6
2017-Feb-17 17:34N 54°42' E 012°31'4611.4
2017-Feb-17 13:33N 54°60' E 013°44'1312.7
2017-Feb-17 12:33N 55°05' E 014°04'1312.7
2017-Feb-17 11:33N 55°14' E 014°19'1312.9
2017-Feb-17 10:33N 55°24' E 014°33'1211.7
2017-Feb-17 09:33N 55°31' E 014°50'1312.6
2017-Feb-17 08:30N 55°37' E 015°11'32911.6
2017-Feb-16 04:16N 59°28' E 022°26'2512.5
2017-Feb-16 02:17N 59°37' E 023°13'912.5
2017-Feb-16 01:33N 59°39' E 023°30'1312.5
2017-Feb-16 00:33N 59°43' E 023°54'7412.3
2017-Feb-15 18:33N 59°59' E 026°17'1212.5
2017-Feb-15 17:33N 60°01' E 026°41'1212.3
2017-Feb-15 16:33N 60°00' E 027°06'1312.5
2017-Feb-15 15:33N 60°07' E 027°27'1212.0
2017-Feb-15 14:33N 60°12' E 027°49'1211.7
2017-Feb-15 13:33N 60°09' E 028°12'1010.4
2017-Feb-15 12:33N 60°04' E 028°30'8 8.3
2017-Feb-15 11:33N 59°56' E 028°34'5 5.2
2017-Feb-15 10:33N 59°51' E 028°28'5 4.3
2017-Feb-15 09:27N 59°47' E 028°25'0 0.0
2017-Feb-15 08:27N 59°47' E 028°25'0 0.0
2017-Feb-15 07:27N 59°47' E 028°25'0 0.0
2017-Feb-15 06:30N 59°47' E 028°25'0 0.0
2017-Feb-15 05:30N 59°47' E 028°25'0 0.0
2017-Feb-15 04:30N 59°47' E 028°25'0 0.0
2017-Feb-15 03:33N 59°47' E 028°25'0 0.0
2017-Feb-15 02:33N 59°47' E 028°25'0 0.0
2017-Feb-15 01:33N 59°47' E 028°25'0 0.0
2017-Feb-15 00:33N 59°47' E 028°25'0 0.0
2017-Feb-14 23:33N 59°47' E 028°25'0 0.0
2017-Feb-14 22:33N 59°47' E 028°25'0 0.0
2017-Feb-14 21:33N 59°47' E 028°25'0 0.0
2017-Feb-14 20:24N 59°47' E 028°25'0 0.0
2017-Feb-14 19:27N 59°47' E 028°25'0 0.0
2017-Feb-14 18:27N 59°47' E 028°25'0 0.0
2017-Feb-14 17:27N 59°47' E 028°25'0 0.0
2017-Feb-14 16:30N 59°47' E 028°25'0 0.0
2017-Feb-14 15:30N 59°47' E 028°25'0 0.0
2017-Feb-14 14:15N 59°47' E 028°25'0 0.6
2017-Feb-14 13:33N 59°46' E 028°25'4 4.0
2017-Feb-14 12:34N 59°43' E 028°26'0 0.0
2017-Feb-14 11:23N 59°43' E 028°26'0 0.0
2017-Feb-14 10:20N 59°43' E 028°26'0 0.0
2017-Feb-14 09:26N 59°43' E 028°26'0 0.0
2017-Feb-14 08:23N 59°43' E 028°26'0 0.0
2017-Feb-14 07:29N 59°43' E 028°26'0 0.0
2017-Feb-14 06:29N 59°43' E 028°26'0 0.0
2017-Feb-14 05:29N 59°43' E 028°26'0 0.0
2017-Feb-14 04:32N 59°43' E 028°26'0 0.0
2017-Feb-14 03:32N 59°43' E 028°26'0 0.0
2017-Feb-14 02:32N 59°43' E 028°26'0 0.0
2017-Feb-14 01:32N 59°43' E 028°26'0 0.0
2017-Feb-14 00:32N 59°43' E 028°26'0 0.0
2017-Feb-13 23:32N 59°43' E 028°26'0 0.0
2017-Feb-13 21:23N 59°43' E 028°26'0 0.0
2017-Feb-13 20:26N 59°43' E 028°26'0 0.0
2017-Feb-13 19:26N 59°43' E 028°26'0 0.0
2017-Feb-13 18:26N 59°43' E 028°26'0 0.0
2017-Feb-13 17:29N 59°43' E 028°26'0 0.0
2017-Feb-13 16:29N 59°43' E 028°26'0 0.0
2017-Feb-13 15:29N 59°43' E 028°26'0 0.0
2017-Feb-13 14:32N 59°43' E 028°26'0 0.0
2017-Feb-13 13:32N 59°43' E 028°26'0 0.0
2017-Feb-13 12:32N 59°43' E 028°26'0 0.0
2017-Feb-13 11:32N 59°43' E 028°26'0 0.0
2017-Feb-13 10:32N 59°43' E 028°26'0 0.0
2017-Feb-13 09:32N 59°43' E 028°26'0 0.0
2017-Feb-13 08:32N 59°43' E 028°26'0 0.0
2017-Feb-13 07:23N 59°43' E 028°26'0 0.0
2017-Feb-13 06:26N 59°43' E 028°26'0 0.0
2017-Feb-13 05:34N 59°43' E 028°26'1 0.7
2017-Feb-13 04:34N 59°42' E 028°25'3 3.5
2017-Feb-13 03:33N 59°45' E 028°24'2 1.8
2017-Feb-13 02:32N 59°47' E 028°25'0 0.0
2017-Feb-13 01:32N 59°47' E 028°25'0 0.0
2017-Feb-13 00:32N 59°47' E 028°25'0 0.0
2017-Feb-12 23:32N 59°47' E 028°25'0 0.0
2017-Feb-12 22:32N 59°47' E 028°25'0 0.0
2017-Feb-12 21:23N 59°47' E 028°25'0 0.0
2017-Feb-12 20:26N 59°47' E 028°25'0 0.0
2017-Feb-12 19:26N 59°47' E 028°25'0 0.0
2017-Feb-12 18:26N 59°47' E 028°25'  
Track history (hours):
 
Tides and Currents Weather Stations Pressure Air Temp Water Temp Dewpoint Dewpoint Depression Visibility Wind Speed Wind Dir Waves Ship Positions

Minerva Libra

Last reported at 2017-Feb-22 18:19 UTC. Time now 2017-Feb-23 18:49 UTC.
Position N 55°48' E 016°54'.

Length 250 m; draft 8.5 m.

Type: Ship. MMSI: 240766000.

Date/timePositionNaut miles runAvg speedWind from/ knotsBaromVisibWave heightAir tempDewpointWater temp
2017-Feb-22 18:19N 55°48' E 016°54'810.3
2017-Feb-22 17:33N 55°47' E 016°41'1010.1
2017-Feb-22 16:33N 55°44' E 016°23'1010.1
2017-Feb-22 15:33N 55°42' E 016°06'1010.0
2017-Feb-22 14:33N 55°40' E 015°49'1010.0
2017-Feb-22 13:33N 55°37' E 015°32'10 9.8
2017-Feb-22 12:33N 55°33' E 015°16'1010.0
2017-Feb-22 11:33N 55°29' E 014°60'1010.4
2017-Feb-22 10:33N 55°25' E 014°43'1010.0
2017-Feb-22 09:33N 55°18' E 014°30'10 9.7
2017-Feb-22 08:33N 55°10' E 014°20'10 9.8
2017-Feb-22 07:33N 55°02' E 014°09'1010.3
2017-Feb-22 06:33N 54°59' E 013°52'1010.1
2017-Feb-22 05:33N 54°55' E 013°36'29 9.6
2017-Feb-22 02:33N 54°46' E 012°49'1010.0
2017-Feb-22 01:33N 54°41' E 012°34'1010.4
2017-Feb-22 00:33N 54°35' E 012°19'10 9.6
2017-Feb-21 23:33N 54°27' E 012°12'1210.9
2017-Feb-21 22:26N 54°25' E 011°51'1011.2
2017-Feb-21 21:33N 54°28' E 011°35'1211.8
2017-Feb-21 20:33N 54°33' E 011°17'1212.1
2017-Feb-21 19:33N 54°39' E 010°59'1110.7
2017-Feb-21 18:33N 54°49' E 010°51'1211.7
2017-Feb-21 17:33N 54°60' E 010°60'1212.0
2017-Feb-21 16:33N 55°12' E 011°05'6410.1
2017-Feb-21 10:12N 56°16' E 011°05'55 7.7
2017-Feb-21 03:04N 57°08' E 011°38'510.6
2017-Feb-21 02:33N 57°13' E 011°34'1010.5
2017-Feb-21 01:33N 57°23' E 011°28'1010.2
2017-Feb-21 00:33N 57°31' E 011°17'1110.8
2017-Feb-20 23:33N 57°39' E 011°03'6 6.5
2017-Feb-20 22:33N 57°42' E 010°52'3 3.1
2017-Feb-20 21:33N 57°40' E 010°47'2 2.3
2017-Feb-20 20:33N 57°38' E 010°46'1 1.2
2017-Feb-20 19:33N 57°39' E 010°46'3 3.2
2017-Feb-20 18:33N 57°36' E 010°44'1010.4
2017-Feb-20 17:33N 57°26' E 010°47'1 0.1
2017-Feb-20 03:10N 57°25' E 010°46'0 0.0
2017-Feb-19 11:33N 57°25' E 010°47'1 0.9
2017-Feb-19 10:33N 57°25' E 010°48'1 0.9
2017-Feb-19 09:33N 57°26' E 010°50'0 0.1
2017-Feb-19 08:24N 57°26' E 010°49'0 0.0
2017-Feb-19 07:33N 57°26' E 010°50'0 0.0
2017-Feb-19 06:30N 57°26' E 010°50'0 0.0
2017-Feb-19 05:33N 57°26' E 010°50'0 0.0
2017-Feb-19 04:33N 57°26' E 010°50'0 0.0
2017-Feb-19 03:33N 57°26' E 010°50'0 0.0
2017-Feb-19 02:33N 57°26' E 010°50'0 0.0
2017-Feb-19 01:24N 57°26' E 010°50'0 0.0
2017-Feb-19 00:15N 57°26' E 010°50'0 0.0
2017-Feb-18 23:18N 57°26' E 010°50'0 0.0
2017-Feb-18 22:30N 57°26' E 010°50'0 0.0
2017-Feb-18 21:33N 57°26' E 010°50'0 0.0
2017-Feb-18 20:33N 57°26' E 010°50'0 0.0
2017-Feb-18 19:30N 57°26' E 010°50'0 0.0
2017-Feb-18 18:30N 57°26' E 010°50'2 1.6
2017-Feb-18 17:33N 57°27' E 010°52'1211.7
2017-Feb-18 16:33N 57°30' E 011°13'1111.3
2017-Feb-18 15:33N 57°23' E 011°29'1312.6
2017-Feb-18 14:33N 57°11' E 011°37'1812.3
2017-Feb-18 13:06N 56°54' E 011°48'1711.2
2017-Feb-18 11:33N 56°37' E 011°45'7810.5
2017-Feb-18 04:06N 55°22' E 011°02'810.1
2017-Feb-18 03:17N 55°14' E 011°06'811.2
2017-Feb-18 02:33N 55°07' E 010°59'1110.8
2017-Feb-18 01:33N 54°56' E 010°54'1111.3
2017-Feb-18 00:33N 54°46' E 010°48'10 9.5
2017-Feb-17 23:33N 54°37' E 010°57'1211.6
2017-Feb-17 22:33N 54°34' E 011°16'1212.4
2017-Feb-17 21:33N 54°29' E 011°36'1511.9
2017-Feb-17 20:20N 54°27' E 012°01'7 8.4
2017-Feb-17 19:33N 54°28' E 012°12'9 9.4
2017-Feb-17 18:34N 54°36' E 012°17'10 9.6
2017-Feb-17 17:34N 54°42' E 012°31'4611.4
2017-Feb-17 13:33N 54°60' E 013°44'1312.7
2017-Feb-17 12:33N 55°05' E 014°04'1312.7
2017-Feb-17 11:33N 55°14' E 014°19'1312.9
2017-Feb-17 10:33N 55°24' E 014°33'1211.7
2017-Feb-17 09:33N 55°31' E 014°50'1312.6
2017-Feb-17 08:30N 55°37' E 015°11'32911.6
2017-Feb-16 04:16N 59°28' E 022°26'2512.5
2017-Feb-16 02:17N 59°37' E 023°13'912.5
2017-Feb-16 01:33N 59°39' E 023°30'1312.5
2017-Feb-16 00:33N 59°43' E 023°54'7412.3
2017-Feb-15 18:33N 59°59' E 026°17'1212.5
2017-Feb-15 17:33N 60°01' E 026°41'1212.3
2017-Feb-15 16:33N 60°00' E 027°06'1312.5
2017-Feb-15 15:33N 60°07' E 027°27'1212.0
2017-Feb-15 14:33N 60°12' E 027°49'1211.7
2017-Feb-15 13:33N 60°09' E 028°12'1010.4
2017-Feb-15 12:33N 60°04' E 028°30'8 8.3
2017-Feb-15 11:33N 59°56' E 028°34'5 5.2
2017-Feb-15 10:33N 59°51' E 028°28'5 4.3
2017-Feb-15 09:27N 59°47' E 028°25'0 0.0
2017-Feb-15 08:27N 59°47' E 028°25'0 0.0
2017-Feb-15 07:27N 59°47' E 028°25'0 0.0
2017-Feb-15 06:30N 59°47' E 028°25'0 0.0
2017-Feb-15 05:30N 59°47' E 028°25'0 0.0
2017-Feb-15 04:30N 59°47' E 028°25'0 0.0
2017-Feb-15 03:33N 59°47' E 028°25'0 0.0
2017-Feb-15 02:33N 59°47' E 028°25'0 0.0
2017-Feb-15 01:33N 59°47' E 028°25'0 0.0
2017-Feb-15 00:33N 59°47' E 028°25'0 0.0
2017-Feb-14 23:33N 59°47' E 028°25'0 0.0
2017-Feb-14 22:33N 59°47' E 028°25'0 0.0
2017-Feb-14 21:33N 59°47' E 028°25'0 0.0
2017-Feb-14 20:24N 59°47' E 028°25'0 0.0
2017-Feb-14 19:27N 59°47' E 028°25'0 0.0
2017-Feb-14 18:27N 59°47' E 028°25'0 0.0
2017-Feb-14 17:27N 59°47' E 028°25'0 0.0
2017-Feb-14 16:30N 59°47' E 028°25'0 0.0
2017-Feb-14 15:30N 59°47' E 028°25'0 0.0
2017-Feb-14 14:15N 59°47' E 028°25'0 0.6
2017-Feb-14 13:33N 59°46' E 028°25'4 4.0
2017-Feb-14 12:34N 59°43' E 028°26'0 0.0
2017-Feb-14 11:23N 59°43' E 028°26'0 0.0
2017-Feb-14 10:20N 59°43' E 028°26'0 0.0
2017-Feb-14 09:26N 59°43' E 028°26'0 0.0
2017-Feb-14 08:23N 59°43' E 028°26'0 0.0
2017-Feb-14 07:29N 59°43' E 028°26'0 0.0
2017-Feb-14 06:29N 59°43' E 028°26'0 0.0
2017-Feb-14 05:29N 59°43' E 028°26'0 0.0
2017-Feb-14 04:32N 59°43' E 028°26'0 0.0
2017-Feb-14 03:32N 59°43' E 028°26'0 0.0
2017-Feb-14 02:32N 59°43' E 028°26'0 0.0
2017-Feb-14 01:32N 59°43' E 028°26'0 0.0
2017-Feb-14 00:32N 59°43' E 028°26'0 0.0
2017-Feb-13 23:32N 59°43' E 028°26'0 0.0
2017-Feb-13 21:23N 59°43' E 028°26'0 0.0
2017-Feb-13 20:26N 59°43' E 028°26'0 0.0
2017-Feb-13 19:26N 59°43' E 028°26'0 0.0
2017-Feb-13 18:26N 59°43' E 028°26'0 0.0
2017-Feb-13 17:29N 59°43' E 028°26'0 0.0
2017-Feb-13 16:29N 59°43' E 028°26'0 0.0
2017-Feb-13 15:29N 59°43' E 028°26'0 0.0
2017-Feb-13 14:32N 59°43' E 028°26'0 0.0
2017-Feb-13 13:32N 59°43' E 028°26'0 0.0
2017-Feb-13 12:32N 59°43' E 028°26'0 0.0
2017-Feb-13 11:32N 59°43' E 028°26'0 0.0
2017-Feb-13 10:32N 59°43' E 028°26'0 0.0
2017-Feb-13 09:32N 59°43' E 028°26'0 0.0
2017-Feb-13 08:32N 59°43' E 028°26'0 0.0
2017-Feb-13 07:23N 59°43' E 028°26'0 0.0
2017-Feb-13 06:26N 59°43' E 028°26'0 0.0
2017-Feb-13 05:34N 59°43' E 028°26'1 0.7
2017-Feb-13 04:34N 59°42' E 028°25'3 3.5
2017-Feb-13 03:33N 59°45' E 028°24'2 1.8
2017-Feb-13 02:32N 59°47' E 028°25'0 0.0
2017-Feb-13 01:32N 59°47' E 028°25'0 0.0
2017-Feb-13 00:32N 59°47' E 028°25'0 0.0
2017-Feb-12 23:32N 59°47' E 028°25'0 0.0
2017-Feb-12 22:32N 59°47' E 028°25'0 0.0
2017-Feb-12 21:23N 59°47' E 028°25'0 0.0
2017-Feb-12 20:26N 59°47' E 028°25'0 0.0
2017-Feb-12 19:26N 59°47' E 028°25'0 0.0
2017-Feb-12 18:26N 59°47' E 028°25'  

Dump ship's entire track history